sensor_id;sensor_type;location;lat;lon;timestamp;pressure;altitude;pressure_sealevel;temperature;humidity
73692;BME280;61996;49.910;35.562;2023-05-22T00:00:25;99458.56;;;22.31;43.91
73692;BME280;61996;49.910;35.562;2023-05-22T00:03:28;99450.72;;;22.30;43.47
73692;BME280;61996;49.910;35.562;2023-05-22T00:06:33;99449.88;;;22.29;43.72
73692;BME280;61996;49.910;35.562;2023-05-22T00:09:35;99445.19;;;22.31;43.47
73692;BME280;61996;49.910;35.562;2023-05-22T00:12:38;99434.31;;;22.33;43.50
73692;BME280;61996;49.910;35.562;2023-05-22T00:15:41;99442.34;;;22.33;43.66
73692;BME280;61996;49.910;35.562;2023-05-22T00:18:44;99433.97;;;22.36;43.56
73692;BME280;61996;49.910;35.562;2023-05-22T00:21:48;99445.69;;;22.35;43.40
73692;BME280;61996;49.910;35.562;2023-05-22T00:24:51;99448.22;;;22.36;43.58
73692;BME280;61996;49.910;35.562;2023-05-22T00:27:54;99452.91;;;22.34;43.47
73692;BME280;61996;49.910;35.562;2023-05-22T00:30:57;99443.69;;;22.37;43.21
73692;BME280;61996;49.910;35.562;2023-05-22T00:34:00;99438.50;;;22.35;43.35
73692;BME280;61996;49.910;35.562;2023-05-22T00:37:04;99440.00;;;22.38;43.21
73692;BME280;61996;49.910;35.562;2023-05-22T00:40:07;99444.03;;;22.42;43.20
73692;BME280;61996;49.910;35.562;2023-05-22T00:43:10;99445.22;;;22.39;43.24
73692;BME280;61996;49.910;35.562;2023-05-22T00:46:13;99441.53;;;22.40;43.04
73692;BME280;61996;49.910;35.562;2023-05-22T00:49:22;99442.84;;;22.36;43.04
73692;BME280;61996;49.910;35.562;2023-05-22T00:52:26;99440.16;;;22.36;43.15
73692;BME280;61996;49.910;35.562;2023-05-22T00:55:29;99447.19;;;22.37;43.35
73692;BME280;61996;49.910;35.562;2023-05-22T00:58:31;99439.16;;;22.37;42.97
73692;BME280;61996;49.910;35.562;2023-05-22T01:01:34;99440.81;;;22.38;43.05
73692;BME280;61996;49.910;35.562;2023-05-22T01:04:42;99447.03;;;22.39;43.21
73692;BME280;61996;49.910;35.562;2023-05-22T01:07:50;99446.88;;;22.40;43.02
73692;BME280;61996;49.910;35.562;2023-05-22T01:10:55;99434.97;;;22.43;42.93
73692;BME280;61996;49.910;35.562;2023-05-22T01:13:59;99437.84;;;22.41;43.10
73692;BME280;61996;49.910;35.562;2023-05-22T01:17:06;99438.66;;;22.42;43.09
73692;BME280;61996;49.910;35.562;2023-05-22T01:20:13;99435.81;;;22.43;42.73
73692;BME280;61996;49.910;35.562;2023-05-22T01:23:40;99438.84;;;22.49;42.83
73692;BME280;61996;49.910;35.562;2023-05-22T01:30:12;99434.97;;;22.43;42.85
73692;BME280;61996;49.910;35.562;2023-05-22T01:33:18;99432.13;;;22.44;42.87
73692;BME280;61996;49.910;35.562;2023-05-22T01:36:27;99421.25;;;22.46;42.70
73692;BME280;61996;49.910;35.562;2023-05-22T01:39:31;99431.28;;;22.44;43.08
73692;BME280;61996;49.910;35.562;2023-05-22T01:42:34;99433.47;;;22.49;42.69
73692;BME280;61996;49.910;35.562;2023-05-22T01:45:37;99420.75;;;22.42;42.63
73692;BME280;61996;49.910;35.562;2023-05-22T01:48:41;99430.47;;;22.43;42.69
73692;BME280;61996;49.910;35.562;2023-05-22T01:51:46;99433.13;;;22.43;42.96
73692;BME280;61996;49.910;35.562;2023-05-22T01:54:54;99423.91;;;22.46;42.91
73692;BME280;61996;49.910;35.562;2023-05-22T01:58:02;99440.16;;;22.44;42.95
73692;BME280;61996;49.910;35.562;2023-05-22T02:01:11;99438.00;;;22.48;42.77
73692;BME280;61996;49.910;35.562;2023-05-22T02:04:16;99437.00;;;22.49;42.52
73692;BME280;61996;49.910;35.562;2023-05-22T02:07:21;99442.53;;;22.56;42.79
73692;BME280;61996;49.910;35.562;2023-05-22T02:10:25;99442.69;;;22.54;42.75
73692;BME280;61996;49.910;35.562;2023-05-22T02:13:29;99444.19;;;22.57;42.68
73692;BME280;61996;49.910;35.562;2023-05-22T02:16:32;99440.84;;;22.55;42.69
73692;BME280;61996;49.910;35.562;2023-05-22T02:19:36;99437.50;;;22.53;42.65
73692;BME280;61996;49.910;35.562;2023-05-22T02:22:40;99440.03;;;22.54;42.92
73692;BME280;61996;49.910;35.562;2023-05-22T02:25:43;99432.13;;;22.53;42.61
73692;BME280;61996;49.910;35.562;2023-05-22T02:28:45;99431.28;;;22.52;42.92
73692;BME280;61996;49.910;35.562;2023-05-22T02:31:48;99436.50;;;22.54;42.80
73692;BME280;61996;49.910;35.562;2023-05-22T02:34:52;99432.81;;;22.55;43.01
73692;BME280;61996;49.910;35.562;2023-05-22T02:37:55;99426.94;;;22.51;42.69
73692;BME280;61996;49.910;35.562;2023-05-22T02:40:58;99426.94;;;22.51;43.01
73692;BME280;61996;49.910;35.562;2023-05-22T02:44:01;99432.28;;;22.59;42.77
73692;BME280;61996;49.910;35.562;2023-05-22T02:47:04;99434.16;;;22.67;42.60
73692;BME280;61996;49.910;35.562;2023-05-22T02:50:08;99433.81;;;22.70;42.75
73692;BME280;61996;49.910;35.562;2023-05-22T02:53:11;99430.31;;;22.69;42.73
73692;BME280;61996;49.910;35.562;2023-05-22T02:56:14;99426.59;;;22.70;42.78
73692;BME280;61996;49.910;35.562;2023-05-22T02:59:19;99437.84;;;22.74;42.42
73692;BME280;61996;49.910;35.562;2023-05-22T03:02:23;99435.31;;;22.73;42.39
73692;BME280;61996;49.910;35.562;2023-05-22T03:05:28;99428.09;;;22.73;42.53
73692;BME280;61996;49.910;35.562;2023-05-22T03:08:32;99431.47;;;22.75;42.42
73692;BME280;61996;49.910;35.562;2023-05-22T03:11:38;99431.13;;;22.78;42.54
73692;BME280;61996;49.910;35.562;2023-05-22T03:14:41;99430.09;;;22.79;42.21
73692;BME280;61996;49.910;35.562;2023-05-22T03:17:44;99432.28;;;22.84;42.02
73692;BME280;61996;49.910;35.562;2023-05-22T03:20:48;99427.78;;;22.84;42.14
73692;BME280;61996;49.910;35.562;2023-05-22T03:23:50;99432.81;;;22.87;42.11
73692;BME280;61996;49.910;35.562;2023-05-22T03:26:53;99429.97;;;22.89;42.11
73692;BME280;61996;49.910;35.562;2023-05-22T03:29:56;99426.28;;;22.90;42.41
73692;BME280;61996;49.910;35.562;2023-05-22T03:32:59;99430.47;;;22.92;42.05
73692;BME280;61996;49.910;35.562;2023-05-22T03:36:03;99430.97;;;22.96;42.29
73692;BME280;61996;49.910;35.562;2023-05-22T03:39:06;99433.66;;;22.96;42.27
73692;BME280;61996;49.910;35.562;2023-05-22T03:42:09;99426.28;;;22.98;41.95
73692;BME280;61996;49.910;35.562;2023-05-22T03:45:13;99426.09;;;23.00;42.20
73692;BME280;61996;49.910;35.562;2023-05-22T03:48:16;99425.78;;;23.03;41.88
73692;BME280;61996;49.910;35.562;2023-05-22T03:51:20;99427.09;;;23.07;42.16
73692;BME280;61996;49.910;35.562;2023-05-22T03:54:23;99423.56;;;23.06;42.10
73692;BME280;61996;49.910;35.562;2023-05-22T03:57:26;99431.44;;;23.08;42.15
73692;BME280;61996;49.910;35.562;2023-05-22T04:00:29;99426.56;;;23.11;42.09
73692;BME280;61996;49.910;35.562;2023-05-22T04:03:32;99421.22;;;23.11;42.00
73692;BME280;61996;49.910;35.562;2023-05-22T04:06:36;99425.56;;;23.12;42.11
73692;BME280;61996;49.910;35.562;2023-05-22T04:09:43;99431.59;;;23.14;41.92
73692;BME280;61996;49.910;35.562;2023-05-22T04:12:46;99431.44;;;23.16;41.79
73692;BME280;61996;49.910;35.562;2023-05-22T04:15:49;99428.56;;;23.17;41.63
73692;BME280;61996;49.910;35.562;2023-05-22T04:18:53;99433.75;;;23.19;41.56
73692;BME280;61996;49.910;35.562;2023-05-22T04:21:58;99427.88;;;23.15;41.83
73692;BME280;61996;49.910;35.562;2023-05-22T04:25:00;99429.75;;;23.15;41.87
73692;BME280;61996;49.910;35.562;2023-05-22T04:28:03;99438.47;;;23.17;41.40
73692;BME280;61996;49.910;35.562;2023-05-22T04:31:06;99440.97;;;23.18;41.40
73692;BME280;61996;49.910;35.562;2023-05-22T04:34:09;99435.78;;;23.17;41.82
73692;BME280;61996;49.910;35.562;2023-05-22T04:37:14;99441.81;;;23.19;41.68
73692;BME280;61996;49.910;35.562;2023-05-22T04:40:17;99439.78;;;23.21;41.75
73692;BME280;61996;49.910;35.562;2023-05-22T04:43:20;99436.94;;;23.22;41.87
73692;BME280;61996;49.910;35.562;2023-05-22T04:46:23;99440.47;;;23.23;41.66
73692;BME280;61996;49.910;35.562;2023-05-22T04:49:26;99436.59;;;23.25;41.46
73692;BME280;61996;49.910;35.562;2023-05-22T04:52:31;99434.75;;;23.26;41.58
73692;BME280;61996;49.910;35.562;2023-05-22T04:55:34;99432.72;;;23.28;41.58
73692;BME280;61996;49.910;35.562;2023-05-22T04:58:37;99429.34;;;23.34;41.68
73692;BME280;61996;49.910;35.562;2023-05-22T05:01:40;99420.81;;;23.31;41.40
73692;BME280;61996;49.910;35.562;2023-05-22T05:04:45;99431.03;;;23.35;41.55
73692;BME280;61996;49.910;35.562;2023-05-22T05:07:50;99427.31;;;23.36;41.59
73692;BME280;61996;49.910;35.562;2023-05-22T05:10:53;99415.44;;;23.39;41.33
73692;BME280;61996;49.910;35.562;2023-05-22T05:13:56;99421.63;;;23.39;41.36
73692;BME280;61996;49.910;35.562;2023-05-22T05:16:59;99421.97;;;23.36;41.13
73692;BME280;61996;49.910;35.562;2023-05-22T05:20:03;99413.59;;;23.39;41.40
73692;BME280;61996;49.910;35.562;2023-05-22T05:23:09;99415.25;;;23.40;41.26
73692;BME280;61996;49.910;35.562;2023-05-22T05:26:11;99413.91;;;23.36;41.08
73692;BME280;61996;49.910;35.562;2023-05-22T05:29:14;99412.56;;;23.40;40.89
73692;BME280;61996;49.910;35.562;2023-05-22T05:32:17;99413.91;;;23.44;41.04
73692;BME280;61996;49.910;35.562;2023-05-22T05:35:20;99414.41;;;23.40;40.97
73692;BME280;61996;49.910;35.562;2023-05-22T05:38:24;99418.44;;;23.44;40.97
73692;BME280;61996;49.910;35.562;2023-05-22T05:41:27;99422.59;;;23.46;41.30
73692;BME280;61996;49.910;35.562;2023-05-22T05:44:30;99416.75;;;23.43;41.39
73692;BME280;61996;49.910;35.562;2023-05-22T05:47:33;99424.28;;;23.47;41.25
73692;BME280;61996;49.910;35.562;2023-05-22T05:50:35;99421.41;;;23.49;41.31
73692;BME280;61996;49.910;35.562;2023-05-22T05:53:40;99421.41;;;23.49;41.21
73692;BME280;61996;49.910;35.562;2023-05-22T05:56:43;99421.59;;;23.47;41.43
73692;BME280;61996;49.910;35.562;2023-05-22T05:59:46;99419.75;;;23.48;41.31
73692;BME280;61996;49.910;35.562;2023-05-22T06:02:48;99421.25;;;23.50;41.19
73692;BME280;61996;49.910;35.562;2023-05-22T06:05:51;99415.03;;;23.50;41.39
73692;BME280;61996;49.910;35.562;2023-05-22T06:08:56;99410.69;;;23.49;40.88
73692;BME280;61996;49.910;35.562;2023-05-22T06:11:59;99418.72;;;23.49;41.21
73692;BME280;61996;49.910;35.562;2023-05-22T06:15:02;99412.72;;;23.47;40.90
73692;BME280;61996;49.910;35.562;2023-05-22T06:18:05;99422.25;;;23.49;41.33
73692;BME280;61996;49.910;35.562;2023-05-22T06:21:08;99419.06;;;23.54;41.15
73692;BME280;61996;49.910;35.562;2023-05-22T06:24:12;99421.75;;;23.54;41.35
73692;BME280;61996;49.910;35.562;2023-05-22T06:27:15;99421.75;;;23.54;41.06
73692;BME280;61996;49.910;35.562;2023-05-22T06:30:17;99414.19;;;23.58;41.30
73692;BME280;61996;49.910;35.562;2023-05-22T06:33:40;99410.47;;;23.59;41.44
73692;BME280;61996;49.910;35.562;2023-05-22T06:36:43;99406.28;;;23.56;41.11
73692;BME280;61996;49.910;35.562;2023-05-22T06:39:48;99415.53;;;23.62;41.09
73692;BME280;61996;49.910;35.562;2023-05-22T06:42:51;99409.31;;;23.61;41.17
73692;BME280;61996;49.910;35.562;2023-05-22T06:45:53;99411.63;;;23.64;41.01
73692;BME280;61996;49.910;35.562;2023-05-22T06:48:56;99407.47;;;23.62;41.03
73692;BME280;61996;49.910;35.562;2023-05-22T06:51:59;99405.63;;;23.62;41.03
73692;BME280;61996;49.910;35.562;2023-05-22T06:55:07;99401.09;;;23.63;41.00
73692;BME280;61996;49.910;35.562;2023-05-22T06:58:10;99407.28;;;23.63;40.95
73692;BME280;61996;49.910;35.562;2023-05-22T07:01:13;99405.28;;;23.65;40.86
73692;BME280;61996;49.910;35.562;2023-05-22T07:04:16;99407.28;;;23.63;41.22
73692;BME280;61996;49.910;35.562;2023-05-22T07:07:18;99403.44;;;23.66;40.99
73692;BME280;61996;49.910;35.562;2023-05-22T07:10:22;99401.41;;;23.68;41.79
73692;BME280;61996;49.910;35.562;2023-05-22T07:13:28;99399.09;;;23.65;41.31
73692;BME280;61996;49.910;35.562;2023-05-22T07:16:32;99401.59;;;23.66;41.69
73692;BME280;61996;49.910;35.562;2023-05-22T07:19:37;99395.00;;;23.69;41.65
73692;BME280;61996;49.910;35.562;2023-05-22T07:22:40;99390.97;;;23.73;41.76
73692;BME280;61996;49.910;35.562;2023-05-22T07:25:44;99395.66;;;23.71;41.24
73692;BME280;61996;49.910;35.562;2023-05-22T07:28:47;99390.97;;;23.73;41.30
73692;BME280;61996;49.910;35.562;2023-05-22T07:31:50;99399.31;;;23.78;41.44
73692;BME280;61996;49.910;35.562;2023-05-22T07:34:53;99389.25;;;23.80;41.44
73692;BME280;61996;49.910;35.562;2023-05-22T07:37:56;99396.16;;;23.74;41.29
73692;BME280;61996;49.910;35.562;2023-05-22T07:41:00;99381.19;;;23.80;41.95
73692;BME280;61996;49.910;35.562;2023-05-22T07:44:05;99384.06;;;23.78;41.46
73692;BME280;61996;49.910;35.562;2023-05-22T07:47:08;99382.22;;;23.79;41.52
73692;BME280;61996;49.910;35.562;2023-05-22T07:50:10;99372.44;;;23.86;41.56
73692;BME280;61996;49.910;35.562;2023-05-22T07:53:13;99365.03;;;23.88;41.29
73692;BME280;61996;49.910;35.562;2023-05-22T07:56:19;99363.19;;;23.89;41.32
73692;BME280;61996;49.910;35.562;2023-05-22T07:59:22;99360.50;;;23.89;41.60
73692;BME280;61996;49.910;35.562;2023-05-22T08:02:25;99360.69;;;23.87;41.41
73692;BME280;61996;49.910;35.562;2023-05-22T08:05:28;99361.50;;;23.88;41.68
73692;BME280;61996;49.910;35.562;2023-05-22T08:08:31;99359.84;;;23.87;41.27
73692;BME280;61996;49.910;35.562;2023-05-22T08:11:36;99360.13;;;23.92;41.53
73692;BME280;61996;49.910;35.562;2023-05-22T08:14:40;99349.81;;;24.03;40.95
73692;BME280;61996;49.910;35.562;2023-05-22T08:17:43;99357.63;;;23.90;41.22
73692;BME280;61996;49.910;35.562;2023-05-22T08:20:46;99355.44;;;23.94;41.69
73692;BME280;61996;49.910;35.562;2023-05-22T08:23:48;99355.25;;;23.95;41.07
73692;BME280;61996;49.910;35.562;2023-05-22T08:26:53;99351.84;;;24.01;41.28
73692;BME280;61996;49.910;35.562;2023-05-22T08:29:55;99350.84;;;24.02;40.84
73692;BME280;61996;49.910;35.562;2023-05-22T08:32:58;99342.91;;;24.09;41.20
73692;BME280;61996;49.910;35.562;2023-05-22T08:36:01;99348.88;;;23.96;41.22
73692;BME280;61996;49.910;35.562;2023-05-22T08:39:04;99345.47;;;24.02;41.28
73692;BME280;61996;49.910;35.562;2023-05-22T08:42:09;99353.91;;;23.99;40.70
73692;BME280;61996;49.910;35.562;2023-05-22T08:45:12;99346.28;;;24.03;40.97
73692;BME280;61996;49.910;35.562;2023-05-22T08:48:16;99351.34;;;23.98;41.09
73692;BME280;61996;49.910;35.562;2023-05-22T08:51:20;99344.44;;;24.03;40.50
73692;BME280;61996;49.910;35.562;2023-05-22T08:54:23;99337.59;;;24.01;41.04
73692;BME280;61996;49.910;35.562;2023-05-22T08:57:29;99340.09;;;24.02;40.70
73692;BME280;61996;49.910;35.562;2023-05-22T09:00:32;99334.06;;;24.00;40.97
73692;BME280;61996;49.910;35.562;2023-05-22T09:03:35;99338.44;;;24.01;40.71
73692;BME280;61996;49.910;35.562;2023-05-22T09:06:39;99332.03;;;24.02;40.64
73692;BME280;61996;49.910;35.562;2023-05-22T09:09:41;99332.69;;;24.04;40.65
73692;BME280;61996;49.910;35.562;2023-05-22T09:13:01;99333.28;;;24.15;40.88
73692;BME280;61996;49.910;35.562;2023-05-22T09:16:06;99324.50;;;24.21;40.88
73692;BME280;61996;49.910;35.562;2023-05-22T09:19:10;99329.91;;;24.13;41.04
73692;BME280;61996;49.910;35.562;2023-05-22T09:22:13;99329.47;;;24.09;41.17
73692;BME280;61996;49.910;35.562;2023-05-22T09:25:17;99330.66;;;24.06;41.08
73692;BME280;61996;49.910;35.562;2023-05-22T09:28:21;99337.53;;;24.09;41.18
73692;BME280;61996;49.910;35.562;2023-05-22T09:31:24;99328.44;;;24.10;40.86
73692;BME280;61996;49.910;35.562;2023-05-22T09:34:28;99325.56;;;24.12;40.42
73692;BME280;61996;49.910;35.562;2023-05-22T09:37:31;99315.50;;;24.14;40.64
73692;BME280;61996;49.910;35.562;2023-05-22T09:40:36;99312.63;;;24.15;40.55
73692;BME280;61996;49.910;35.562;2023-05-22T09:43:41;99308.09;;;24.16;40.40
73692;BME280;61996;49.910;35.562;2023-05-22T09:46:51;99304.56;;;24.15;40.26
73692;BME280;61996;49.910;35.562;2023-05-22T09:49:53;99288.91;;;24.19;40.30
73692;BME280;61996;49.910;35.562;2023-05-22T09:52:59;99295.09;;;24.19;40.11
73692;BME280;61996;49.910;35.562;2023-05-22T09:56:03;99295.94;;;24.20;39.93
73692;BME280;61996;49.910;35.562;2023-05-22T09:59:10;99285.19;;;24.20;40.30
73692;BME280;61996;49.910;35.562;2023-05-22T10:02:14;99292.91;;;24.23;39.76
73692;BME280;61996;49.910;35.562;2023-05-22T10:05:17;99294.94;;;24.21;40.00
73692;BME280;61996;49.910;35.562;2023-05-22T10:08:23;99290.22;;;24.23;39.73
73692;BME280;61996;49.910;35.562;2023-05-22T10:11:27;99282.81;;;24.25;39.83
73692;BME280;61996;49.910;35.562;2023-05-22T10:14:33;99286.31;;;24.25;39.88
73692;BME280;61996;49.910;35.562;2023-05-22T10:17:36;99286.50;;;24.24;39.68
73692;BME280;61996;49.910;35.562;2023-05-22T10:20:39;99296.25;;;24.25;39.85
73692;BME280;61996;49.910;35.562;2023-05-22T10:23:42;99282.47;;;24.28;39.31
73692;BME280;61996;49.910;35.562;2023-05-22T10:26:45;99289.50;;;24.29;39.56
73692;BME280;61996;49.910;35.562;2023-05-22T10:29:51;99288.66;;;24.28;39.34
73692;BME280;61996;49.910;35.562;2023-05-22T10:32:55;99275.22;;;24.28;39.54
73692;BME280;61996;49.910;35.562;2023-05-22T10:36:01;99272.25;;;24.23;39.47
73692;BME280;61996;49.910;35.562;2023-05-22T10:39:08;99269.78;;;24.37;39.67
73692;BME280;61996;49.910;35.562;2023-05-22T10:42:14;99268.97;;;24.36;39.89
73692;BME280;61996;49.910;35.562;2023-05-22T10:45:19;99262.38;;;24.39;40.26
73692;BME280;61996;49.910;35.562;2023-05-22T10:48:21;99270.63;;;24.37;40.35
73692;BME280;61996;49.910;35.562;2023-05-22T10:51:24;99268.13;;;24.36;39.70
73692;BME280;61996;49.910;35.562;2023-05-22T10:54:40;99262.94;;;24.34;39.59
73692;BME280;61996;49.910;35.562;2023-05-22T10:57:43;99260.06;;;24.36;38.82
73692;BME280;61996;49.910;35.562;2023-05-22T11:00:48;99258.91;;;24.30;39.17
73692;BME280;61996;49.910;35.562;2023-05-22T11:03:55;99255.94;;;24.25;39.18
73692;BME280;61996;49.910;35.562;2023-05-22T11:07:01;99260.38;;;24.32;39.32
73692;BME280;61996;49.910;35.562;2023-05-22T11:10:05;99255.72;;;24.35;39.14
73692;BME280;61996;49.910;35.562;2023-05-22T11:13:10;99256.56;;;24.35;38.51
73692;BME280;61996;49.910;35.562;2023-05-22T11:16:14;99254.88;;;24.34;39.39
73692;BME280;61996;49.910;35.562;2023-05-22T11:19:17;99248.09;;;24.38;38.76
73692;BME280;61996;49.910;35.562;2023-05-22T11:22:28;99247.56;;;24.43;38.90
73692;BME280;61996;49.910;35.562;2023-05-22T11:25:31;99251.63;;;24.39;38.28
73692;BME280;61996;49.910;35.562;2023-05-22T11:28:34;99240.03;;;24.38;38.45
73692;BME280;61996;49.910;35.562;2023-05-22T11:31:42;99241.72;;;24.39;38.70
73692;BME280;61996;49.910;35.562;2023-05-22T11:34:47;99245.13;;;24.33;38.03
73692;BME280;61996;49.910;35.562;2023-05-22T11:37:51;99247.09;;;24.39;38.48
73692;BME280;61996;49.910;35.562;2023-05-22T11:40:54;99244.50;;;24.46;38.21
73692;BME280;61996;49.910;35.562;2023-05-22T11:43:57;99246.53;;;24.44;37.72
73692;BME280;61996;49.910;35.562;2023-05-22T11:47:01;99243.03;;;24.43;37.60
73692;BME280;61996;49.910;35.562;2023-05-22T11:50:06;99245.22;;;24.54;37.54
73692;BME280;61996;49.910;35.562;2023-05-22T11:53:10;99246.00;;;24.48;37.80
73692;BME280;61996;49.910;35.562;2023-05-22T11:56:13;99238.66;;;24.42;38.73
73692;BME280;61996;49.910;35.562;2023-05-22T11:59:15;99249.88;;;24.46;38.09
73692;BME280;61996;49.910;35.562;2023-05-22T12:02:20;99250.44;;;24.56;37.94
73692;BME280;61996;49.910;35.562;2023-05-22T12:05:22;99238.66;;;24.57;37.76
73692;BME280;61996;49.910;35.562;2023-05-22T12:08:25;99243.66;;;24.45;38.04
73692;BME280;61996;49.910;35.562;2023-05-22T12:11:30;99235.78;;;24.58;37.12
73692;BME280;61996;49.910;35.562;2023-05-22T12:14:35;99230.22;;;24.60;37.15
73692;BME280;61996;49.910;35.562;2023-05-22T12:17:39;99233.94;;;24.59;37.15
73692;BME280;61996;49.910;35.562;2023-05-22T12:20:42;99227.44;;;24.53;37.32
73692;BME280;61996;49.910;35.562;2023-05-22T12:23:49;99228.38;;;24.60;36.58
73692;BME280;61996;49.910;35.562;2023-05-22T12:26:52;99215.50;;;24.56;37.59
73692;BME280;61996;49.910;35.562;2023-05-22T12:29:55;99225.69;;;24.60;37.14
73692;BME280;61996;49.910;35.562;2023-05-22T12:33:02;99222.34;;;24.58;37.09
73692;BME280;61996;49.910;35.562;2023-05-22T12:36:06;99228.75;;;24.57;37.84
73692;BME280;61996;49.910;35.562;2023-05-22T12:39:10;99233.84;;;24.52;36.90
73692;BME280;61996;49.910;35.562;2023-05-22T12:42:13;99228.38;;;24.60;36.33
73692;BME280;61996;49.910;35.562;2023-05-22T12:45:16;99231.88;;;24.61;37.56
73692;BME280;61996;49.910;35.562;2023-05-22T12:48:20;99225.88;;;24.59;37.55
73692;BME280;61996;49.910;35.562;2023-05-22T12:51:24;99231.34;;;24.66;37.25
73692;BME280;61996;49.910;35.562;2023-05-22T12:54:27;99230.13;;;24.68;36.90
73692;BME280;61996;49.910;35.562;2023-05-22T12:57:30;99228.66;;;24.66;36.73
73692;BME280;61996;49.910;35.562;2023-05-22T13:00:32;99221.69;;;24.71;36.81
73692;BME280;61996;49.910;35.562;2023-05-22T13:03:37;99218.28;;;24.63;37.17
73692;BME280;61996;49.910;35.562;2023-05-22T13:06:41;99214.47;;;24.72;37.25
73692;BME280;61996;49.910;35.562;2023-05-22T13:09:43;99214.06;;;24.75;37.26
73692;BME280;61996;49.910;35.562;2023-05-22T13:12:46;99225.75;;;24.82;37.32
73692;BME280;61996;49.910;35.562;2023-05-22T13:15:51;99223.53;;;24.85;36.37
73692;BME280;61996;49.910;35.562;2023-05-22T13:18:55;99213.25;;;24.74;37.38
73692;BME280;61996;49.910;35.562;2023-05-22T13:21:58;99212.88;;;24.77;37.41
73692;BME280;61996;49.910;35.562;2023-05-22T13:25:01;99215.00;;;24.82;37.14
73692;BME280;61996;49.910;35.562;2023-05-22T13:28:04;99214.16;;;24.81;37.14
73692;BME280;61996;49.910;35.562;2023-05-22T13:31:07;99212.13;;;24.83;37.12
73692;BME280;61996;49.910;35.562;2023-05-22T13:34:11;99212.50;;;24.80;37.30
73692;BME280;61996;49.910;35.562;2023-05-22T13:37:14;99209.81;;;24.80;36.93
73692;BME280;61996;49.910;35.562;2023-05-22T13:40:17;99218.25;;;24.92;36.71
73692;BME280;61996;49.910;35.562;2023-05-22T13:43:20;99213.41;;;24.87;37.18
73692;BME280;61996;49.910;35.562;2023-05-22T13:46:22;99212.59;;;24.87;36.51
73692;BME280;61996;49.910;35.562;2023-05-22T13:49:26;99213.22;;;24.89;36.92
73692;BME280;61996;49.910;35.562;2023-05-22T13:52:29;99205.44;;;24.94;36.48
73692;BME280;61996;49.910;35.562;2023-05-22T13:55:32;99206.56;;;24.85;36.76
73692;BME280;61996;49.910;35.562;2023-05-22T13:58:35;99203.97;;;24.92;36.74
73692;BME280;61996;49.910;35.562;2023-05-22T14:01:38;99203.03;;;24.84;39.43
73692;BME280;61996;49.910;35.562;2023-05-22T14:04:42;99216.50;;;24.84;38.90
73692;BME280;61996;49.910;35.562;2023-05-22T14:07:48;99215.00;;;24.82;38.69
73692;BME280;61996;49.910;35.562;2023-05-22T14:10:51;99215.56;;;24.92;38.28
73692;BME280;61996;49.910;35.562;2023-05-22T14:13:55;99209.25;;;24.85;38.51
73692;BME280;61996;49.910;35.562;2023-05-22T14:16:58;99207.84;;;24.89;38.07
73692;BME280;61996;49.910;35.562;2023-05-22T14:20:02;99206.75;;;24.83;38.07
73692;BME280;61996;49.910;35.562;2023-05-22T14:23:06;99215.00;;;24.82;38.60
73692;BME280;61996;49.910;35.562;2023-05-22T14:26:09;99218.47;;;24.76;37.50
73692;BME280;61996;49.910;35.562;2023-05-22T14:29:14;99221.41;;;24.81;39.00
73692;BME280;61996;49.910;35.562;2023-05-22T14:32:16;99218.50;;;24.82;38.88
73692;BME280;61996;49.910;35.562;2023-05-22T14:35:21;99215.00;;;24.82;38.81
73692;BME280;61996;49.910;35.562;2023-05-22T14:38:24;99232.16;;;24.81;37.83
73692;BME280;61996;49.910;35.562;2023-05-22T14:41:27;99227.59;;;24.81;38.72
73692;BME280;61996;49.910;35.562;2023-05-22T14:44:30;99238.38;;;24.81;37.79
73692;BME280;61996;49.910;35.562;2023-05-22T14:47:32;99234.00;;;24.80;37.90
73692;BME280;61996;49.910;35.562;2023-05-22T14:50:37;99232.72;;;24.76;37.85
73692;BME280;61996;49.910;35.562;2023-05-22T14:53:39;99236.63;;;24.59;38.15
73692;BME280;61996;49.910;35.562;2023-05-22T14:56:42;99244.50;;;24.60;38.51
73692;BME280;61996;49.910;35.562;2023-05-22T14:59:45;99244.22;;;24.41;39.24
73692;BME280;61996;49.910;35.562;2023-05-22T15:02:48;99241.44;;;24.34;38.59
73692;BME280;61996;49.910;35.562;2023-05-22T15:05:52;99245.81;;;24.12;39.49
73692;BME280;61996;49.910;35.562;2023-05-22T15:08:55;99249.28;;;24.21;39.13
73692;BME280;61996;49.910;35.562;2023-05-22T15:11:58;99244.78;;;24.36;39.37
73692;BME280;61996;49.910;35.562;2023-05-22T15:15:00;99247.00;;;24.47;38.51
73692;BME280;61996;49.910;35.562;2023-05-22T15:18:03;99241.56;;;24.55;38.07
73692;BME280;61996;49.910;35.562;2023-05-22T15:21:07;99238.09;;;24.61;38.38
73692;BME280;61996;49.910;35.562;2023-05-22T15:24:10;99237.56;;;24.66;37.91
73692;BME280;61996;49.910;35.562;2023-05-22T15:27:13;99239.13;;;24.60;38.06
73692;BME280;61996;49.910;35.562;2023-05-22T15:30:16;99230.31;;;24.67;38.18
73692;BME280;61996;49.910;35.562;2023-05-22T15:33:22;99226.34;;;24.63;37.68
73692;BME280;61996;49.910;35.562;2023-05-22T15:36:26;99232.66;;;24.70;37.70
73692;BME280;61996;49.910;35.562;2023-05-22T15:39:33;99228.84;;;24.64;37.38
73692;BME280;61996;49.910;35.562;2023-05-22T15:42:36;99230.41;;;24.73;37.57
73692;BME280;61996;49.910;35.562;2023-05-22T15:45:39;99238.75;;;24.64;37.82
73692;BME280;61996;49.910;35.562;2023-05-22T15:48:43;99227.19;;;24.63;37.69
73692;BME280;61996;49.910;35.562;2023-05-22T15:51:47;99231.25;;;24.59;37.38
73692;BME280;61996;49.910;35.562;2023-05-22T15:54:50;99228.19;;;24.47;37.36
73692;BME280;61996;49.910;35.562;2023-05-22T15:57:56;99223.19;;;24.44;36.89
73692;BME280;61996;49.910;35.562;2023-05-22T16:00:59;99217.44;;;24.47;37.16
73692;BME280;61996;49.910;35.562;2023-05-22T16:04:02;99220.41;;;24.52;37.05